createdAt,value
2022-07-26T00:01:40.684Z,63.70
2022-07-26T00:04:07.919Z,63.80
2022-07-26T00:06:35.097Z,63.90
2022-07-26T00:09:02.311Z,63.80
2022-07-26T00:11:30.467Z,63.80
2022-07-26T00:13:57.606Z,63.80
2022-07-26T00:16:24.841Z,64.10
2022-07-26T00:18:51.884Z,64.10
2022-07-26T00:21:19.005Z,64.00
2022-07-26T00:23:46.113Z,64.10
2022-07-26T00:26:13.078Z,64.20
2022-07-26T00:28:41.497Z,64.40
2022-07-26T00:31:09.094Z,64.40
2022-07-26T00:33:36.321Z,64.30
2022-07-26T00:36:03.667Z,64.30
2022-07-26T00:38:30.744Z,64.30
2022-07-26T00:40:57.798Z,64.50
2022-07-26T00:43:24.962Z,64.50
2022-07-26T00:45:52.099Z,64.20
2022-07-26T00:48:19.162Z,64.20
2022-07-26T00:50:46.633Z,64.20
2022-07-26T00:53:13.906Z,64.20
2022-07-26T00:55:41.014Z,63.80
2022-07-26T00:58:08.075Z,63.60
2022-07-26T01:00:35.349Z,63.50
2022-07-26T01:03:02.737Z,63.50
2022-07-26T01:05:30.313Z,63.30
2022-07-26T01:07:58.472Z,63.30
2022-07-26T01:10:25.844Z,63.20
2022-07-26T01:12:52.935Z,63.20
2022-07-26T01:15:20.097Z,62.90
2022-07-26T01:17:47.469Z,62.90
2022-07-26T01:20:15.561Z,62.60
2022-07-26T01:22:42.657Z,62.30
2022-07-26T01:25:10.076Z,62.20
2022-07-26T01:27:40.375Z,62.00
2022-07-26T01:30:10.171Z,61.80
2022-07-26T01:32:37.561Z,61.70
2022-07-26T01:35:06.623Z,61.60
2022-07-26T01:37:33.740Z,61.60
2022-07-26T01:40:00.746Z,61.60
2022-07-26T01:42:27.870Z,61.60
2022-07-26T01:44:54.979Z,61.70
2022-07-26T01:47:22.040Z,61.80
2022-07-26T01:49:49.067Z,61.80
2022-07-26T01:52:16.054Z,61.80
2022-07-26T01:54:43.067Z,62.00
2022-07-26T01:57:10.326Z,62.10
2022-07-26T01:59:37.430Z,62.40
2022-07-26T02:02:04.707Z,62.60
2022-07-26T02:04:50.200Z,62.80
2022-07-26T02:07:17.181Z,63.00
2022-07-26T02:09:44.260Z,63.10
2022-07-26T02:12:11.287Z,63.30
2022-07-26T02:14:38.330Z,63.40
2022-07-26T02:17:05.510Z,63.50
2022-07-26T02:19:32.986Z,63.50
2022-07-26T02:22:00.478Z,63.60
2022-07-26T02:24:29.133Z,63.70
2022-07-26T02:27:00.546Z,63.80
2022-07-26T02:29:28.316Z,63.70
2022-07-26T02:31:56.286Z,64.10
2022-07-26T02:34:23.836Z,64.20
2022-07-26T02:36:51.380Z,64.20
2022-07-26T02:39:18.438Z,64.20
2022-07-26T02:41:45.812Z,64.30
2022-07-26T02:44:12.856Z,64.40
2022-07-26T02:46:39.965Z,64.40
2022-07-26T02:49:07.177Z,64.60
2022-07-26T02:51:34.415Z,64.70
2022-07-26T02:54:01.453Z,64.90
2022-07-26T02:56:28.601Z,65.20
2022-07-26T02:58:55.756Z,65.30
2022-07-26T03:01:22.852Z,65.50
2022-07-26T03:03:51.024Z,65.60
2022-07-26T03:06:19.419Z,65.70
2022-07-26T03:08:47.320Z,65.70
2022-07-26T03:11:14.558Z,65.90
2022-07-26T03:13:41.560Z,66.10
2022-07-26T03:16:08.910Z,66.10
2022-07-26T03:18:36.456Z,66.30
2022-07-26T03:21:03.750Z,66.50
2022-07-26T03:23:33.510Z,67.30
2022-07-26T03:26:02.061Z,66.90
2022-07-26T03:28:33.636Z,67.80
2022-07-26T03:31:00.938Z,67.30
2022-07-26T03:33:28.965Z,67.40
2022-07-26T03:35:56.240Z,67.70
2022-07-26T03:38:23.336Z,67.70
2022-07-26T03:40:50.485Z,68.00
2022-07-26T03:43:22.564Z,68.20
2022-07-26T03:45:50.714Z,68.30
2022-07-26T03:48:18.020Z,68.40
2022-07-26T03:50:45.023Z,68.50
2022-07-26T03:53:12.130Z,68.60
2022-07-26T03:55:57.628Z,68.70
2022-07-26T03:58:24.632Z,68.80
2022-07-26T04:00:51.696Z,68.90
2022-07-26T04:03:18.736Z,69.00
2022-07-26T04:05:48.879Z,69.10
2022-07-26T04:08:16.794Z,69.20
2022-07-26T04:10:53.399Z,69.30
2022-07-26T04:13:20.875Z,69.50
2022-07-26T04:15:47.886Z,69.40
2022-07-26T04:18:14.869Z,69.50
2022-07-26T04:20:42.648Z,69.50
2022-07-26T04:23:11.097Z,69.60
2022-07-26T04:25:41.667Z,69.60
2022-07-26T04:28:09.850Z,69.70
2022-07-26T04:30:37.425Z,69.70
2022-07-26T04:33:05.530Z,70.30
2022-07-26T04:35:33.191Z,69.60
2022-07-26T04:38:00.284Z,69.60
2022-07-26T04:40:29.249Z,69.60
2022-07-26T04:42:56.461Z,69.50
2022-07-26T04:45:23.559Z,69.50
2022-07-26T04:47:50.946Z,69.60
2022-07-26T04:50:19.822Z,69.70
2022-07-26T04:52:47.345Z,69.80
2022-07-26T04:55:14.901Z,69.90
2022-07-26T04:57:42.677Z,69.80
2022-07-26T05:00:27.991Z,69.70
2022-07-26T05:02:58.609Z,69.70
2022-07-26T05:05:28.148Z,69.70
2022-07-26T05:07:58.156Z,69.50
2022-07-26T05:10:37.115Z,69.20
2022-07-26T05:13:05.816Z,68.80
2022-07-26T05:15:35.430Z,68.40
2022-07-26T05:18:08.915Z,68.10
2022-07-26T05:20:38.576Z,67.70
2022-07-26T05:23:05.629Z,68.10
2022-07-26T05:25:32.887Z,67.40
2022-07-26T05:28:00.010Z,67.30
2022-07-26T05:30:27.518Z,67.20
2022-07-26T05:32:54.793Z,67.10
2022-07-26T05:35:22.022Z,66.90
2022-07-26T05:37:49.375Z,66.70
2022-07-26T05:40:16.861Z,66.40
2022-07-26T05:42:43.939Z,65.80
2022-07-26T05:45:11.290Z,65.80
2022-07-26T05:47:38.352Z,65.80
2022-07-26T05:50:07.018Z,65.90
2022-07-26T05:52:34.066Z,66.00
2022-07-26T05:55:01.162Z,65.80
2022-07-26T05:57:28.213Z,65.60
2022-07-26T05:59:55.246Z,65.20
2022-07-26T06:02:22.255Z,65.10
2022-07-26T06:04:49.511Z,64.90
2022-07-26T06:07:16.638Z,64.60
2022-07-26T06:09:44.061Z,64.50
2022-07-26T06:12:11.174Z,64.00
2022-07-26T06:14:38.362Z,63.40
2022-07-26T06:17:05.485Z,63.20
2022-07-26T06:19:33.038Z,62.80
2022-07-26T06:22:00.402Z,62.70
2022-07-26T06:24:27.813Z,62.30
2022-07-26T06:27:04.483Z,61.50
2022-07-26T06:29:32.772Z,61.60
2022-07-26T06:32:00.141Z,61.70
2022-07-26T06:34:27.278Z,61.70
2022-07-26T06:36:54.352Z,61.30
2022-07-26T06:39:21.556Z,60.90
2022-07-26T06:41:48.826Z,60.60
2022-07-26T06:44:22.842Z,59.90
2022-07-26T06:46:50.087Z,59.20
2022-07-26T06:49:20.762Z,59.20
2022-07-26T06:51:49.600Z,58.70
2022-07-26T06:54:16.659Z,57.60
2022-07-26T06:56:43.765Z,58.10
2022-07-26T06:59:10.811Z,57.80
2022-07-26T07:01:57.956Z,57.10
2022-07-26T07:04:24.978Z,56.90
2022-07-26T07:06:52.032Z,56.00
2022-07-26T07:09:20.075Z,55.60
2022-07-26T07:11:51.842Z,55.70
2022-07-26T07:14:23.509Z,55.40
2022-07-26T07:16:50.644Z,54.70
2022-07-26T07:19:17.789Z,54.40
2022-07-26T07:21:45.048Z,54.20
2022-07-26T07:24:12.257Z,54.00
2022-07-26T07:26:39.448Z,52.90
2022-07-26T07:29:06.490Z,52.50
2022-07-26T07:31:47.822Z,52.60
2022-07-26T07:34:19.473Z,52.90
2022-07-26T07:36:47.064Z,53.10
2022-07-26T07:39:17.489Z,52.20
2022-07-26T07:41:45.953Z,51.20
2022-07-26T07:44:13.308Z,51.00
2022-07-26T07:46:40.957Z,50.60
2022-07-26T07:49:08.491Z,51.50
2022-07-26T07:51:36.150Z,51.50
2022-07-26T07:54:05.813Z,50.30
2022-07-26T07:56:33.584Z,50.90
2022-07-26T07:59:00.596Z,51.00
2022-07-26T08:01:39.536Z,50.70
2022-07-26T08:04:08.955Z,49.90
2022-07-26T08:06:36.530Z,49.00
2022-07-26T08:09:06.328Z,48.20
2022-07-26T08:11:34.300Z,48.10
2022-07-26T08:14:01.890Z,48.30
2022-07-26T08:16:29.143Z,48.90
2022-07-26T08:19:08.818Z,48.90
2022-07-26T08:21:36.149Z,48.40
2022-07-26T08:24:03.486Z,48.70
2022-07-26T08:26:30.512Z,48.20
2022-07-26T08:28:59.799Z,47.90
2022-07-26T08:31:28.904Z,47.90
2022-07-26T08:33:56.198Z,46.30
2022-07-26T08:36:23.443Z,46.10
2022-07-26T08:38:50.504Z,46.80
2022-07-26T08:41:18.636Z,45.40
2022-07-26T08:43:52.343Z,45.60
2022-07-26T08:46:26.972Z,46.10
2022-07-26T08:48:56.381Z,46.20
2022-07-26T08:51:25.147Z,45.20
2022-07-26T08:54:02.218Z,45.40
2022-07-26T08:56:32.955Z,44.30
2022-07-26T08:59:02.592Z,43.80
2022-07-26T09:01:29.712Z,44.10
2022-07-26T09:03:56.827Z,43.90
2022-07-26T09:06:26.294Z,43.40
2022-07-26T09:09:11.569Z,42.60
2022-07-26T09:11:38.779Z,42.80
2022-07-26T09:14:06.734Z,42.90
2022-07-26T09:16:38.808Z,43.10
2022-07-26T09:19:22.858Z,42.80
2022-07-26T09:21:51.055Z,42.50
2022-07-26T09:24:39.200Z,42.90
2022-07-26T09:27:08.500Z,42.90
2022-07-26T09:29:57.000Z,42.60
2022-07-26T09:32:26.052Z,41.90
2022-07-26T09:35:24.079Z,41.90
2022-07-26T09:37:56.214Z,40.90
2022-07-26T09:40:23.397Z,41.00
2022-07-26T09:43:23.955Z,40.80
2022-07-26T09:46:05.039Z,40.90
2022-07-26T09:48:52.170Z,41.20
2022-07-26T09:51:38.744Z,41.50
2022-07-26T09:54:06.926Z,41.80
2022-07-26T09:56:44.254Z,42.10
2022-07-26T09:59:14.202Z,41.30
2022-07-26T10:01:41.481Z,41.20
2022-07-26T10:04:09.093Z,40.60
2022-07-26T10:06:36.266Z,40.30
2022-07-26T10:09:04.855Z,40.40
2022-07-26T10:11:53.076Z,40.80
2022-07-26T10:14:36.549Z,40.90
2022-07-26T10:17:31.094Z,40.50
2022-07-26T10:20:09.289Z,39.80
2022-07-26T10:22:46.692Z,39.40
2022-07-26T10:25:20.162Z,39.70
2022-07-26T10:27:52.610Z,40.20
2022-07-26T10:30:19.687Z,39.70
2022-07-26T10:33:13.405Z,39.40
2022-07-26T10:35:43.406Z,39.40
2022-07-26T10:38:22.754Z,39.80
2022-07-26T10:41:01.367Z,40.00
2022-07-26T10:43:44.525Z,39.20
2022-07-26T10:46:20.439Z,40.00
2022-07-26T10:48:56.792Z,40.40
2022-07-26T10:51:36.572Z,40.00
2022-07-26T10:54:06.164Z,39.80
2022-07-26T10:56:34.226Z,39.80
2022-07-26T10:59:02.221Z,38.80
2022-07-26T11:01:37.983Z,38.90
2022-07-26T11:04:07.677Z,39.50
2022-07-26T11:06:35.101Z,39.10
2022-07-26T11:09:10.894Z,39.20
2022-07-26T11:11:38.718Z,39.90
2022-07-26T11:14:07.435Z,38.90
2022-07-26T11:16:41.863Z,38.90
2022-07-26T11:19:39.521Z,39.30
2022-07-26T11:22:06.490Z,39.30
2022-07-26T11:24:40.703Z,39.40
2022-07-26T11:27:07.930Z,39.80
2022-07-26T11:29:40.761Z,39.20
2022-07-26T11:32:18.641Z,39.50
2022-07-26T11:34:46.669Z,39.70
2022-07-26T11:37:14.452Z,39.90
2022-07-26T11:39:41.464Z,39.50
2022-07-26T11:42:19.681Z,40.50
2022-07-26T11:44:47.811Z,39.40
2022-07-26T11:47:25.614Z,39.80
2022-07-26T11:52:40.988Z,40.30
2022-07-26T11:55:08.697Z,39.60
2022-07-26T11:57:35.869Z,39.40
2022-07-26T12:00:03.765Z,39.60
2022-07-26T12:02:40.047Z,38.90
2022-07-26T12:05:22.580Z,39.10
2022-07-26T12:07:55.389Z,39.50
2022-07-26T12:10:22.843Z,39.50
2022-07-26T12:12:50.005Z,39.20
2022-07-26T12:15:17.117Z,37.90
2022-07-26T12:18:02.151Z,38.50
2022-07-26T12:20:29.190Z,39.70
2022-07-26T12:23:00.754Z,40.10
2022-07-26T12:25:29.206Z,39.90
2022-07-26T12:27:56.910Z,40.20
2022-07-26T12:30:25.627Z,40.50
2022-07-26T12:33:02.328Z,39.80
2022-07-26T12:35:37.986Z,39.50
2022-07-26T12:38:05.194Z,39.50
2022-07-26T12:40:41.637Z,40.10
2022-07-26T12:43:09.435Z,41.00
2022-07-26T12:45:38.156Z,40.70
2022-07-26T12:48:12.666Z,41.30
2022-07-26T12:50:39.968Z,42.30
2022-07-26T12:53:09.027Z,42.40
2022-07-26T12:55:39.731Z,41.60
2022-07-26T12:58:06.785Z,42.00
2022-07-26T13:00:33.897Z,42.40
2022-07-26T13:03:00.999Z,43.30
2022-07-26T13:05:28.069Z,43.60
2022-07-26T13:07:55.608Z,43.90
2022-07-26T13:10:33.455Z,44.20
2022-07-26T13:13:02.045Z,43.90
2022-07-26T13:15:36.416Z,44.10
2022-07-26T13:18:08.898Z,44.20
2022-07-26T13:20:39.859Z,44.60
2022-07-26T13:23:13.145Z,44.90
2022-07-26T13:25:43.167Z,44.60
2022-07-26T13:28:10.261Z,44.80
2022-07-26T13:30:39.555Z,44.80
2022-07-26T13:33:07.255Z,44.50
2022-07-26T13:35:34.445Z,44.80
2022-07-26T13:38:01.850Z,45.40
2022-07-26T13:40:31.457Z,45.20
2022-07-26T13:42:59.515Z,44.90
2022-07-26T13:45:28.921Z,44.60
2022-07-26T13:48:00.497Z,44.50
2022-07-26T13:50:28.488Z,44.60
2022-07-26T13:52:56.751Z,45.00
2022-07-26T13:55:24.582Z,44.90
2022-07-26T13:57:55.840Z,44.70
2022-07-26T14:00:28.897Z,44.50
2022-07-26T14:02:57.958Z,44.50
2022-07-26T14:05:26.303Z,44.40
2022-07-26T14:07:54.435Z,44.40
2022-07-26T14:10:23.050Z,44.90
2022-07-26T14:12:50.603Z,44.60
2022-07-26T14:15:22.072Z,44.70
2022-07-26T14:17:52.971Z,44.90
2022-07-26T14:20:20.751Z,45.00
2022-07-26T14:22:48.401Z,44.90
2022-07-26T14:25:15.663Z,45.20
2022-07-26T14:27:42.746Z,44.80
2022-07-26T14:30:10.182Z,45.00
2022-07-26T14:32:37.334Z,44.90
2022-07-26T14:35:05.457Z,45.00
2022-07-26T14:37:43.810Z,45.00
2022-07-26T14:40:16.994Z,44.90
2022-07-26T14:42:45.275Z,44.70
2022-07-26T14:45:13.262Z,44.60
2022-07-26T14:47:40.692Z,44.30
2022-07-26T14:50:09.242Z,45.20
2022-07-26T14:52:41.557Z,45.20
2022-07-26T14:55:09.639Z,45.40
2022-07-26T14:57:39.435Z,44.80
2022-07-26T15:00:11.703Z,44.80
2022-07-26T15:02:44.176Z,44.20
2022-07-26T15:05:12.540Z,44.00
2022-07-26T15:07:41.234Z,44.20
2022-07-26T15:10:10.543Z,44.10
2022-07-26T15:12:38.557Z,44.10
2022-07-26T15:15:07.195Z,44.00
2022-07-26T15:17:35.089Z,44.10
2022-07-26T15:20:03.065Z,44.30
2022-07-26T15:22:30.071Z,44.20
2022-07-26T15:24:57.098Z,44.00
2022-07-26T15:27:24.103Z,43.70
2022-07-26T15:29:51.147Z,43.50
2022-07-26T15:32:19.880Z,43.20
2022-07-26T15:34:47.004Z,43.20
2022-07-26T15:37:14.040Z,43.30
2022-07-26T15:39:41.408Z,43.20
2022-07-26T15:42:09.857Z,43.20
2022-07-26T15:44:38.780Z,43.10
2022-07-26T15:47:06.068Z,43.20
2022-07-26T15:49:34.194Z,43.40
2022-07-26T15:52:09.679Z,43.70
2022-07-26T15:54:36.729Z,43.60
2022-07-26T15:57:04.041Z,43.60
2022-07-26T15:59:31.101Z,43.80
2022-07-26T16:01:58.270Z,44.00
2022-07-26T16:04:25.386Z,44.50
2022-07-26T16:06:52.573Z,45.10
2022-07-26T16:09:20.090Z,45.80
2022-07-26T16:11:48.406Z,45.90
2022-07-26T16:14:16.776Z,46.10
2022-07-26T16:16:44.506Z,46.90
2022-07-26T16:19:11.929Z,47.40
2022-07-26T16:21:40.483Z,47.50
2022-07-26T16:24:08.140Z,47.90
2022-07-26T16:26:36.242Z,48.60
2022-07-26T16:29:04.557Z,48.50
2022-07-26T16:31:32.981Z,48.80
2022-07-26T16:34:00.431Z,49.50
2022-07-26T16:36:28.023Z,48.60
2022-07-26T16:38:55.198Z,48.80
2022-07-26T16:41:22.282Z,49.00
2022-07-26T16:43:49.320Z,49.10
2022-07-26T16:46:16.870Z,49.40
2022-07-26T16:48:44.316Z,49.50
2022-07-26T16:51:13.493Z,49.90
2022-07-26T16:53:41.131Z,49.60
2022-07-26T16:56:08.329Z,49.80
2022-07-26T16:58:37.569Z,50.20
2022-07-26T17:01:04.703Z,50.60
2022-07-26T17:03:31.747Z,51.00
2022-07-26T17:06:02.909Z,51.40
2022-07-26T17:08:33.020Z,51.50
2022-07-26T17:11:00.240Z,51.90
2022-07-26T17:13:27.555Z,51.80
2022-07-26T17:15:54.721Z,51.80
2022-07-26T17:18:22.001Z,52.00
2022-07-26T17:20:49.054Z,51.50
2022-07-26T17:23:18.421Z,50.70
2022-07-26T17:25:46.207Z,50.20
2022-07-26T17:28:13.951Z,50.50
2022-07-26T17:30:41.034Z,49.70
2022-07-26T17:33:08.196Z,49.80
2022-07-26T17:35:35.348Z,49.80
2022-07-26T17:38:02.438Z,49.80
2022-07-26T17:40:31.675Z,49.80
2022-07-26T17:43:00.046Z,49.60
2022-07-26T17:45:27.155Z,49.40
2022-07-26T17:47:54.246Z,49.10
2022-07-26T17:50:38.018Z,49.10
2022-07-26T17:53:06.203Z,48.90
2022-07-26T17:55:33.830Z,49.10
2022-07-26T17:58:00.977Z,49.50
2022-07-26T18:00:29.070Z,49.90
2022-07-26T18:02:57.049Z,50.40
2022-07-26T18:05:30.148Z,50.70
2022-07-26T18:08:00.560Z,51.10
2022-07-26T18:10:28.253Z,51.50
2022-07-26T18:12:55.536Z,52.10
2022-07-26T18:15:22.671Z,52.50
2022-07-26T18:17:49.703Z,52.60
2022-07-26T18:20:16.838Z,52.80
2022-07-26T18:22:47.058Z,52.80
2022-07-26T18:25:17.545Z,52.30
2022-07-26T18:27:44.625Z,51.80
2022-07-26T18:30:12.086Z,51.90
2022-07-26T18:32:39.243Z,52.00
2022-07-26T18:35:06.707Z,52.10
2022-07-26T18:37:33.830Z,52.20
2022-07-26T18:40:02.281Z,52.20
2022-07-26T18:42:29.413Z,52.40
2022-07-26T18:44:56.488Z,52.40
2022-07-26T18:47:23.510Z,52.50
2022-07-26T18:49:50.842Z,52.70
2022-07-26T18:52:28.162Z,52.90
2022-07-26T18:54:58.682Z,53.00
2022-07-26T18:57:25.698Z,53.10
2022-07-26T18:59:52.714Z,53.40
2022-07-26T19:02:19.858Z,53.70
2022-07-26T19:04:46.909Z,53.90
2022-07-26T19:07:14.880Z,54.20
2022-07-26T19:09:42.037Z,54.40
2022-07-26T19:12:10.524Z,54.80
2022-07-26T19:14:37.557Z,55.00
2022-07-26T19:17:09.733Z,55.20
2022-07-26T19:19:38.156Z,56.00
2022-07-26T19:22:05.380Z,55.90
2022-07-26T19:24:41.432Z,56.40
2022-07-26T19:27:09.590Z,57.30
2022-07-26T19:29:39.350Z,57.90
2022-07-26T19:32:07.053Z,58.20
2022-07-26T19:34:34.369Z,58.60
2022-07-26T19:37:01.621Z,58.80
2022-07-26T19:39:28.722Z,58.80
2022-07-26T19:41:56.372Z,58.70
2022-07-26T19:44:23.549Z,58.70
2022-07-26T19:46:55.554Z,58.70
2022-07-26T19:49:24.454Z,58.50
2022-07-26T19:51:51.510Z,58.10
2022-07-26T19:54:18.600Z,57.80
2022-07-26T19:56:45.742Z,57.80
2022-07-26T19:59:13.673Z,57.50
2022-07-26T20:01:43.055Z,57.70
2022-07-26T20:04:10.408Z,57.90
2022-07-26T20:06:37.472Z,58.00
2022-07-26T20:09:05.221Z,58.10
2022-07-26T20:11:35.120Z,58.30
2022-07-26T20:14:03.171Z,58.50
2022-07-26T20:16:30.545Z,59.00
2022-07-26T20:18:58.023Z,59.20
2022-07-26T20:21:25.051Z,59.50
2022-07-26T20:23:52.238Z,59.70
2022-07-26T20:26:19.902Z,59.90
2022-07-26T20:28:47.450Z,60.00
2022-07-26T20:31:17.600Z,60.20
2022-07-26T20:33:44.631Z,60.30
2022-07-26T20:36:11.945Z,60.40
2022-07-26T20:38:39.023Z,60.50
2022-07-26T20:41:06.440Z,60.70
2022-07-26T20:43:34.535Z,60.90
2022-07-26T20:46:02.156Z,61.30
2022-07-26T20:48:29.348Z,61.60
2022-07-26T20:50:56.374Z,61.80
2022-07-26T20:53:23.482Z,62.00
2022-07-26T20:55:50.773Z,62.30
2022-07-26T20:58:18.227Z,62.40
2022-07-26T21:00:45.225Z,63.30
2022-07-26T21:03:13.817Z,62.70
2022-07-26T21:05:41.010Z,62.70
2022-07-26T21:08:08.134Z,62.60
2022-07-26T21:10:35.265Z,62.50
2022-07-26T21:13:02.265Z,62.40
2022-07-26T21:15:30.528Z,62.30
2022-07-26T21:17:58.299Z,62.10
2022-07-26T21:20:25.530Z,61.90
2022-07-26T21:22:52.591Z,61.80
2022-07-26T21:25:19.728Z,62.10
2022-07-26T21:27:46.839Z,62.70
2022-07-26T21:30:14.156Z,63.10
2022-07-26T21:32:41.212Z,63.30
2022-07-26T21:35:08.474Z,63.40
2022-07-26T21:37:35.508Z,63.50
2022-07-26T21:40:02.818Z,63.50
2022-07-26T21:42:29.932Z,63.50
2022-07-26T21:44:57.183Z,63.60
2022-07-26T21:47:24.269Z,63.60
2022-07-26T21:49:51.322Z,63.50
2022-07-26T21:52:18.385Z,63.50
2022-07-26T21:54:45.415Z,63.50
2022-07-26T21:57:12.499Z,63.50
2022-07-26T21:59:39.553Z,63.60
2022-07-26T22:02:06.596Z,63.70
2022-07-26T22:04:33.677Z,63.70
2022-07-26T22:07:00.688Z,64.00
2022-07-26T22:09:27.701Z,64.10
2022-07-26T22:11:54.786Z,64.30
2022-07-26T22:14:22.194Z,64.40
2022-07-26T22:16:49.450Z,64.50
2022-07-26T22:19:16.616Z,64.90
2022-07-26T22:21:43.693Z,65.10
2022-07-26T22:24:10.893Z,65.20
2022-07-26T22:26:37.972Z,65.50
2022-07-26T22:29:04.996Z,65.90
2022-07-26T22:31:32.219Z,66.00
2022-07-26T22:33:59.418Z,66.00
2022-07-26T22:36:26.486Z,66.30
2022-07-26T22:38:53.714Z,66.50
2022-07-26T22:41:20.743Z,66.70
2022-07-26T22:43:47.778Z,66.80
2022-07-26T22:46:14.977Z,67.00
2022-07-26T22:48:45.946Z,67.10
2022-07-26T22:51:14.707Z,67.20
2022-07-26T22:53:41.864Z,67.30
2022-07-26T22:56:08.954Z,67.20
2022-07-26T22:58:35.981Z,67.30
2022-07-26T23:01:03.117Z,67.30
2022-07-26T23:03:30.211Z,67.30
2022-07-26T23:05:59.506Z,67.50
2022-07-26T23:08:46.666Z,67.60
2022-07-26T23:11:14.330Z,67.60
2022-07-26T23:13:41.305Z,67.60
2022-07-26T23:16:08.410Z,67.80
2022-07-26T23:18:35.543Z,67.90
2022-07-26T23:21:04.061Z,68.10
2022-07-26T23:23:31.560Z,68.10
2022-07-26T23:25:59.722Z,68.30
2022-07-26T23:28:35.454Z,68.30
2022-07-26T23:31:09.523Z,68.30
2022-07-26T23:33:51.894Z,68.50
2022-07-26T23:36:28.386Z,68.50
2022-07-26T23:38:57.429Z,68.70
2022-07-26T23:41:25.586Z,68.70
2022-07-26T23:43:54.184Z,68.80
2022-07-26T23:46:22.335Z,68.80
2022-07-26T23:48:50.182Z,68.80
2022-07-26T23:51:19.504Z,68.80
2022-07-26T23:53:47.505Z,68.80
2022-07-26T23:56:15.508Z,68.90
2022-07-26T23:58:42.560Z,69.00
